Meteo Giornale » Osservazioni meteo Francia » Parigi-Orly

ore: 09:30 - Osservazioni Meteo Parigi-Orly
Lat. 48° 44' N Lon. 2° 24' E Alt. 89 metri s.l.m.

sereno Europe/Paris

2 °C

Sereno

Temp. 24 Ore

-2 °C

9 °C

Sud

7.4 Km/h

Dew point -1 °C

Umidità 80 %

Visibilità  10 Km

Il sole sorge alle ore 07:36

Il sole tramonta alle ore 18:29

Data e Ora Cielo e Fenomeni T °C DP °C Um. % Pres. hPa Vis. km Vento km/h
Oggi h: 09:30 sereno Sereno 2 -1 80 1022 10 S 7.4
Oggi h: 09:00 sereno Sereno 2 -2 74 1022 10 S 9.3
Oggi h: 08:00 sereno Sereno -0 -2 86 1022 10 N 5.5
Oggi h: 07:30 sereno Sereno -1 -2 92 1022 10 N 5.5
Oggi h: 07:00 sereno Sereno -0 -2 86 1021 10 N 5.5
Oggi h: 06:30 sereno Sereno -1 -2 92 1021 10 N 5.5
Oggi h: 06:00 sereno Sereno -1 -3 86 1022 10 N 1.8
Oggi h: 05:30 sereno Sereno -2 -4 86 1022 10 N 1.8
Oggi h: 05:00 sereno Sereno -2 -3 92 1022 10 N 3.7
Oggi h: 04:30 sereno Sereno -2 -4 86 1022 10 N 3.7
Oggi h: 04:00 sereno Sereno -2 -3 92 1022 10 N 3.7
Oggi h: 03:30 sereno Sereno -2 -4 86 1022 10 N 5.5
Oggi h: 03:00 sereno Sereno -1 -3 86 1022 10 N 5.5
Oggi h: 02:30 sereno Sereno -1 -3 86 1022 10 N 1.8
Oggi h: 02:00 sereno Sereno -1 -3 86 1023 10 N 3.7
Oggi h: 01:30 sereno Sereno -0 -3 80 1022 10 N 3.7
Oggi h: 01:00 sereno Sereno -0 -3 80 1023 10 N 5.5
Oggi h: 00:30 sereno Sereno 0 -3 80 1023 10 N 3.7
Oggi h: 00:00 sereno Sereno 1 -2 80 1022 10 N 3.7
Ieri h: 23:30 sereno Sereno 1 -3 74 1022 10 N 3.7
Ieri h: 23:00 sereno Sereno 1 -3 74 1023 10 N 0
Ieri h: 22:30 sereno Sereno 1 -3 74 1022 10 N 1.8
Ieri h: 22:00 sereno Sereno 2 -3 69 1022 10 N 3.7
Ieri h: 21:30 sereno Sereno 3 -3 64 1022 10 N 3.7
Ieri h: 21:00 sereno Sereno 4 -3 60 1022 10 N 5.5
Ieri h: 20:30 sereno Sereno 3 -4 59 1021 10 N/NO 9.3
Ieri h: 20:00 sereno Sereno 6 -3 52 1021 10 N/NO 11.1
Ieri h: 19:30 sereno Sereno 6 -3 52 1020 10 N/NO 9.3
Ieri h: 19:00 sereno Sereno 7 -3 48 1020 10 NO 9.3
Ieri h: 18:30 sereno Sereno 7 -3 48 1019 10 N/NO 16.7
Ieri h: 18:00 poco_nuvoloso Poco Nuvoloso 8 -4 42 1019 10 NO 20.3
Ieri h: 17:30 poco_nuvoloso Poco Nuvoloso 8 -3 45 1019 10 NO 16.7
Ieri h: 17:00 poco_nuvoloso Poco Nuvoloso 8 -3 45 1018 10 NO 22.2
Ieri h: 16:30 poco_nuvoloso Poco Nuvoloso 9 -1 49 1018 10 NO 18.5
Ieri h: 16:00 poco_nuvoloso Poco Nuvoloso 9 -1 49 1018 10 N/NO 18.5
Ieri h: 15:30 nuvoloso Nuvoloso 8 -1 52 1018 10 N/NO 20.3
Ieri h: 15:00 molto_nuvoloso Molto Nuvoloso 9 -2 45 1017 10 N/NO 24
Ieri h: 14:30 nuvoloso Nuvoloso 8 1 61 1017 10 NO 18.5
Ieri h: 14:00 molto_nuvoloso Molto Nuvoloso 7 0 60 1018 10 N/NO 11.1
Ieri h: 13:30 nuvoloso_piovaschi Debole Rovescio di Pioggia 6 0 65 1017 10 N 27.8
Ieri h: 13:00 nuvoloso Nuvoloso 9 -0 53 1017 10 NO 18.5
Ieri h: 12:30 nuvoloso Nuvoloso 8 1 61 1017 10 NO 20.3
Ieri h: 12:00 molto_nuvoloso Molto Nuvoloso 8 0 56 1017 10 NO 20.3
Ieri h: 11:30 nuvoloso Nuvoloso 8 1 61 1017 10 NO 20.3
Ieri h: 11:00 nuvoloso Nuvoloso 8 1 61 1016 10 NO 18.5
Ieri h: 10:30 molto_nuvoloso Molto Nuvoloso 7 2 70 1016 10 NO 20.3
Ieri h: 10:00 nuvoloso Nuvoloso 7 2 70 1016 10 O/NO 18.5
Ieri h: 09:30 nuvoloso Nuvoloso 6 2 75 1016 10 O 14.8
Ieri h: 09:00 nuvoloso Nuvoloso 5 2 80 1015 10 O/NO 14.8